Time;durP1;ratioP1;P1;durP2;ratioP2;P2;SDS_P1;SDS_P2;PMS_P1;PMS_P2;Temp;Humidity;BMP_temperature;BMP_pressure;BME280_temperature;BME280_humidity;BME280_pressure;Samples;Min_cycle;Max_cycle;Signal;HPM_P1;HPM_P2
2023/08/01 00:00:36;;;;;;;;;;;;;;;22.26;54.99;94319.22;5187634;22;19931;-79
2023/08/01 00:02:38;;;;;;;;;;;;;;;22.28;54.73;94323.28;5187146;22;20491;-81
2023/08/01 00:04:40;;;;;;;;;;;;;;;22.29;54.57;94327.56;5213114;22;19921;-79
2023/08/01 00:06:41;;;;;;;;;;;;;;;22.28;54.79;94319.78;5216572;22;19919;-79
2023/08/01 00:08:43;;;;;;;;;;;;;;;22.28;54.32;94328.63;5217054;22;19919;-79
2023/08/01 00:10:45;;;;;;;;;;;;;;;22.23;54.54;94323.19;5216129;22;19970;-81
2023/08/01 00:12:46;;;;;;;;;;;;;;;22.16;54.69;94317.16;5217042;22;19925;-78
2023/08/01 00:14:48;;;;;;;;;;;;;;;22.17;54.63;94309.97;5216534;22;19919;-80
2023/08/01 00:16:50;;;;;;;;;;;;;;;22.14;54.82;94319.28;5188778;22;19939;-80
2023/08/01 00:18:52;;;;;;;;;;;;;;;22.14;54.66;94313.94;5214870;22;19976;-80
2023/08/01 00:20:54;;;;;;;;;;;;;;;22.12;54.59;94312.56;5215428;22;19914;-79
2023/08/01 00:22:57;;;;;;;;;;;;;;;22.07;54.56;94316.75;5188479;22;20315;-79
2023/08/01 00:24:58;;;;;;;;;;;;;;;22.04;54.84;94309.22;5215866;22;19919;-78
2023/08/01 00:27:00;;;;;;;;;;;;;;;22.04;54.97;94308.41;5188402;22;19953;-81
2023/08/01 00:29:02;;;;;;;;;;;;;;;22.06;55.13;94315.13;5215823;22;20001;-79
2023/08/01 00:31:04;;;;;;;;;;;;;;;22.06;54.70;94311.66;5214613;22;20386;-79
2023/08/01 00:33:06;;;;;;;;;;;;;;;22.00;54.69;94307.25;5214652;22;20315;-81
2023/08/01 00:35:08;;;;;;;;;;;;;;;22.01;54.87;94317.69;5215845;22;20291;-81
2023/08/01 00:37:10;;;;;;;;;;;;;;;22.03;54.73;94314.81;5214708;22;19930;-80
2023/08/01 00:39:12;;;;;;;;;;;;;;;22.05;54.65;94312.72;5215381;22;19925;-80
2023/08/01 00:41:16;;;;;;;;;;;;;;;22.02;54.75;94315.84;5215559;22;19915;-82
2023/08/01 00:43:18;;;;;;;;;;;;;;;21.99;54.88;94314.47;5215184;22;19964;-78
2023/08/01 00:45:19;;;;;;;;;;;;;;;21.97;55.04;94313.09;5213975;22;19918;-80
2023/08/01 00:47:21;;;;;;;;;;;;;;;21.97;54.86;94315.75;5215916;22;19926;-79
2023/08/01 00:49:23;;;;;;;;;;;;;;;21.96;54.85;94317.63;5215119;22;19918;-76
2023/08/01 00:51:24;;;;;;;;;;;;;;;21.94;54.85;94311.72;5188523;22;19965;-79
2023/08/01 00:53:26;;;;;;;;;;;;;;;21.98;54.77;94301.38;5216191;22;20231;-80
2023/08/01 00:55:28;;;;;;;;;;;;;;;21.97;54.81;94302.44;5185585;22;19919;-78
2023/08/01 00:57:29;;;;;;;;;;;;;;;21.99;54.45;94303.78;5216744;22;19976;-80
2023/08/01 00:59:31;;;;;;;;;;;;;;;21.99;54.40;94303.78;5216876;22;20448;-81
2023/08/01 01:01:33;;;;;;;;;;;;;;;22.00;54.21;94294.72;5189754;22;19965;-78
2023/08/01 01:03:36;;;;;;;;;;;;;;;22.03;54.34;94301.47;5191085;22;19997;-80
2023/08/01 01:05:39;;;;;;;;;;;;;;;22.03;54.31;94299.59;5190868;22;19915;-79
2023/08/01 01:07:40;;;;;;;;;;;;;;;22.01;54.30;94296.38;5193759;22;19990;-79
2023/08/01 01:09:42;;;;;;;;;;;;;;;22.00;54.17;94300.06;5167459;22;19915;-82
2023/08/01 01:11:44;;;;;;;;;;;;;;;21.97;54.27;94297.09;5220002;22;19919;-80
2023/08/01 01:13:46;;;;;;;;;;;;;;;21.99;54.57;94295.00;5190330;22;19957;-80
2023/08/01 01:15:47;;;;;;;;;;;;;;;21.95;54.53;94291.19;5215804;22;19929;-82
2023/08/01 01:17:49;;;;;;;;;;;;;;;21.92;54.59;94297.81;5189617;22;19926;-78
2023/08/01 01:19:51;;;;;;;;;;;;;;;21.95;54.65;94285.84;5217160;22;19975;-79
2023/08/01 01:21:52;;;;;;;;;;;;;;;21.88;54.54;94288.66;5214247;22;20331;-79
2023/08/01 01:24:12;;;;;;;;;;;;;;;21.87;54.68;94279.03;5215037;22;19922;-81
2023/08/01 01:26:16;;;;;;;;;;;;;;;21.90;54.66;94281.25;5215549;22;19918;-79
2023/08/01 01:28:18;;;;;;;;;;;;;;;21.87;54.88;94281.69;5214527;22;19957;-80
2023/08/01 01:30:19;;;;;;;;;;;;;;;21.88;54.74;94286.81;5187598;22;20185;-80
2023/08/01 01:32:21;;;;;;;;;;;;;;;21.86;54.73;94274.75;5215053;22;19919;-80
2023/08/01 01:34:23;;;;;;;;;;;;;;;21.84;54.69;94277.66;5214474;22;19968;-80
2023/08/01 01:36:24;;;;;;;;;;;;;;;21.82;54.53;94279.75;5215573;22;19922;-81
2023/08/01 01:38:26;;;;;;;;;;;;;;;21.84;54.84;94271.53;5214745;22;19933;-80
2023/08/01 01:40:28;;;;;;;;;;;;;;;21.83;54.67;94272.56;5214956;22;19923;-82
2023/08/01 01:42:29;;;;;;;;;;;;;;;21.79;54.57;94280.25;5215124;22;20032;-82
2023/08/01 01:44:31;;;;;;;;;;;;;;;21.79;54.15;94268.75;5186941;22;19959;-81
2023/08/01 01:46:32;;;;;;;;;;;;;;;21.78;54.31;94278.63;5185922;22;19915;-79
2023/08/01 01:48:34;;;;;;;;;;;;;;;21.81;54.12;94280.00;5187259;22;19934;-80
2023/08/01 01:50:36;;;;;;;;;;;;;;;21.78;53.66;94277.81;5215100;22;20001;-81
2023/08/01 01:52:37;;;;;;;;;;;;;;;21.77;53.68;94274.34;5214221;22;20242;-79
2023/08/01 01:54:39;;;;;;;;;;;;;;;21.76;53.52;94290.56;5213645;22;19926;-79
2023/08/01 01:56:41;;;;;;;;;;;;;;;21.71;54.00;94283.28;5187849;22;19926;-80
2023/08/01 01:58:42;;;;;;;;;;;;;;;21.68;53.85;94286.41;5215234;22;20283;-79
2023/08/01 02:00:44;;;;;;;;;;;;;;;21.70;54.24;94284.31;5213422;22;19919;-79
2023/08/01 02:02:46;;;;;;;;;;;;;;;21.73;53.92;94280.41;5185897;22;19919;-79
2023/08/01 02:04:48;;;;;;;;;;;;;;;21.65;54.15;94284.25;5185269;22;19926;-81
2023/08/01 02:06:49;;;;;;;;;;;;;;;21.25;55.42;94285.84;5214848;22;19915;-78
2023/08/01 02:08:51;;;;;;;;;;;;;;;21.20;55.60;94291.06;5216947;22;19915;-79
2023/08/01 02:10:53;;;;;;;;;;;;;;;21.24;54.89;94283.41;5187897;22;19926;-80
2023/08/01 02:12:54;;;;;;;;;;;;;;;21.26;54.88;94281.31;5214325;22;19918;-80
2023/08/01 02:14:56;;;;;;;;;;;;;;;21.28;54.98;94285.38;5215537;22;19925;-78
2023/08/01 02:16:57;;;;;;;;;;;;;;;21.31;54.73;94283.28;5213428;22;19992;-80
2023/08/01 02:19:00;;;;;;;;;;;;;;;21.37;54.51;94277.00;5217350;22;19937;-80
2023/08/01 02:21:02;;;;;;;;;;;;;;;21.41;54.48;94278.16;5191964;22;19922;-80
2023/08/01 02:23:03;;;;;;;;;;;;;;;21.47;54.18;94286.03;5224879;22;19915;-80
2023/08/01 02:25:05;;;;;;;;;;;;;;;21.50;54.13;94275.97;5231948;22;19922;-79
2023/08/01 02:27:07;;;;;;;;;;;;;;;21.48;54.19;94277.00;5233210;22;19949;-81
2023/08/01 02:29:08;;;;;;;;;;;;;;;21.50;53.95;94286.63;5216430;22;19919;-79
2023/08/01 02:31:10;;;;;;;;;;;;;;;21.52;54.01;94282.66;5213973;22;19915;-79
2023/08/01 02:33:12;;;;;;;;;;;;;;;21.59;53.59;94285.19;5212648;22;19934;-82
2023/08/01 02:35:14;;;;;;;;;;;;;;;21.56;53.74;94281.16;5215115;22;19915;-80
2023/08/01 02:37:16;;;;;;;;;;;;;;;21.55;53.88;94290.16;5214020;22;19966;-78
2023/08/01 02:39:18;;;;;;;;;;;;;;;21.52;53.99;94280.00;5216001;22;19961;-81
2023/08/01 02:41:20;;;;;;;;;;;;;;;21.53;53.92;94280.81;5215291;22;19921;-79
2023/08/01 02:43:22;;;;;;;;;;;;;;;21.51;53.66;94282.88;5214376;22;20330;-79
2023/08/01 02:45:25;;;;;;;;;;;;;;;21.53;53.74;94280.81;5215006;22;19966;-79
2023/08/01 02:47:26;;;;;;;;;;;;;;;21.50;53.76;94279.41;5215726;22;19993;-80
2023/08/01 02:49:28;;;;;;;;;;;;;;;21.47;53.54;94282.56;5214298;22;19926;-79
2023/08/01 02:51:30;;;;;;;;;;;;;;;21.45;53.58;94279.34;5187556;22;19915;-79
2023/08/01 02:53:31;;;;;;;;;;;;;;;21.39;53.23;94274.91;5215925;22;19915;-81
2023/08/01 02:55:33;;;;;;;;;;;;;;;21.37;53.44;94280.47;5187806;22;19943;-81
2023/08/01 02:57:35;;;;;;;;;;;;;;;21.36;53.61;94281.53;5214410;22;20358;-81
2023/08/01 02:59:37;;;;;;;;;;;;;;;21.34;53.67;94275.63;5214301;22;19915;-81
2023/08/01 03:01:39;;;;;;;;;;;;;;;21.27;53.71;94282.94;5213060;22;19914;-78
2023/08/01 03:03:41;;;;;;;;;;;;;;;21.27;53.84;94283.75;5213710;22;19976;-78
2023/08/01 03:05:43;;;;;;;;;;;;;;;21.26;53.87;94276.78;5213517;22;19915;-80
2023/08/01 03:07:44;;;;;;;;;;;;;;;21.25;53.99;94277.84;5213844;22;19922;-79
2023/08/01 03:09:46;;;;;;;;;;;;;;;21.26;53.69;94279.47;5162338;22;20022;-79
2023/08/01 03:11:48;;;;;;;;;;;;;;;21.25;53.33;94282.34;5216118;22;19922;-79
2023/08/01 03:13:50;;;;;;;;;;;;;;;21.26;53.51;94276.78;5218369;22;20118;-80
2023/08/01 03:15:52;;;;;;;;;;;;;;;21.25;53.05;94279.69;5216569;22;20266;-79
2023/08/01 03:17:54;;;;;;;;;;;;;;;21.22;53.36;94280.16;5187347;22;19915;-79
2023/08/01 03:19:55;;;;;;;;;;;;;;;21.22;53.27;94283.63;5215644;22;20021;-80
2023/08/01 03:21:57;;;;;;;;;;;;;;;21.21;53.47;94279.38;5217151;22;19918;-81
2023/08/01 03:23:59;;;;;;;;;;;;;;;21.20;53.30;94284.91;5194409;22;19962;-80
2023/08/01 03:26:03;;;;;;;;;;;;;;;21.11;53.53;94289.00;5217992;22;19946;-80
2023/08/01 03:28:05;;;;;;;;;;;;;;;21.10;53.49;94287.38;5187160;22;20119;-80
2023/08/01 03:30:10;;;;;;;;;;;;;;;21.05;53.37;94290.72;5214050;22;20299;-81
2023/08/01 03:32:11;;;;;;;;;;;;;;;21.00;53.46;94283.44;5214448;22;19918;-78
2023/08/01 03:34:13;;;;;;;;;;;;;;;20.96;53.33;94297.47;5214445;22;19915;-80
2023/08/01 03:36:15;;;;;;;;;;;;;;;20.98;53.62;94290.88;5213927;22;20230;-80
2023/08/01 03:38:16;;;;;;;;;;;;;;;20.89;53.56;94284.28;5214096;22;19941;-81
2023/08/01 03:40:19;;;;;;;;;;;;;;;20.90;53.89;94287.75;5187450;22;19923;-82
2023/08/01 03:42:21;;;;;;;;;;;;;;;20.91;53.85;94300.00;5214314;22;19914;-83
2023/08/01 03:44:23;;;;;;;;;;;;;;;20.89;53.81;94294.09;5213638;22;19925;-80
2023/08/01 03:46:25;;;;;;;;;;;;;;;20.91;53.57;94295.50;5213509;22;19938;-80
2023/08/01 03:48:26;;;;;;;;;;;;;;;20.93;53.44;94296.09;5215617;22;20257;-81
2023/08/01 03:50:28;;;;;;;;;;;;;;;20.94;53.40;94296.88;5216587;22;19915;-81
2023/08/01 03:52:29;;;;;;;;;;;;;;;20.86;53.90;94296.22;5216673;22;20342;-81
2023/08/01 03:54:31;;;;;;;;;;;;;;;20.42;54.61;94294.88;5165114;22;19953;-82
2023/08/01 03:56:32;;;;;;;;;;;;;;;20.18;55.70;94294.06;5225575;22;19915;-81
2023/08/01 03:58:34;;;;;;;;;;;;;;;20.15;56.26;94297.16;5206856;22;19919;-81
2023/08/01 04:00:36;;;;;;;;;;;;;;;20.08;56.61;94297.25;5206021;22;19962;-79
2023/08/01 04:02:37;;;;;;;;;;;;;;;19.91;57.21;94302.41;5206954;22;19925;-81
2023/08/01 04:04:39;;;;;;;;;;;;;;;19.82;57.94;94298.44;5233913;22;19913;-78
2023/08/01 04:06:40;;;;;;;;;;;;;;;19.78;58.34;94297.28;5204912;22;19926;-82
2023/08/01 04:08:42;;;;;;;;;;;;;;;19.81;58.59;94304.78;5234337;22;19919;-79
2023/08/01 04:10:44;;;;;;;;;;;;;;;19.85;58.52;94308.63;5235287;22;19946;-79
2023/08/01 04:12:46;;;;;;;;;;;;;;;19.82;58.80;94303.78;5235514;22;19953;-79
2023/08/01 04:14:47;;;;;;;;;;;;;;;19.61;59.75;94297.88;5230883;22;19921;-78
2023/08/01 04:16:53;;;;;;;;;;;;;;;19.60;60.20;94298.13;5232446;22;19938;-81
2023/08/01 04:18:55;;;;;;;;;;;;;;;19.60;60.60;94295.47;5230766;22;20189;-79
2023/08/01 04:20:57;;;;;;;;;;;;;;;19.73;60.52;94307.78;5204668;22;20497;-83
2023/08/01 04:22:58;;;;;;;;;;;;;;;19.91;59.61;94305.06;5205511;22;19915;-79
2023/08/01 04:25:00;;;;;;;;;;;;;;;19.81;59.99;94307.44;5225113;22;19930;-81
2023/08/01 04:27:02;;;;;;;;;;;;;;;19.73;60.58;94305.13;5219027;22;20160;-80
2023/08/01 04:29:04;;;;;;;;;;;;;;;19.63;61.07;94317.06;5217178;22;19914;-81
2023/08/01 04:31:06;;;;;;;;;;;;;;;19.71;60.50;94312.50;5214710;22;19959;-81
2023/08/01 04:33:07;;;;;;;;;;;;;;;19.72;60.72;94314.13;5214895;22;19953;-82
2023/08/01 04:35:09;;;;;;;;;;;;;;;19.73;60.18;94305.13;5215670;22;19985;-82
2023/08/01 04:37:11;;;;;;;;;;;;;;;19.72;59.99;94309.63;5187675;22;19923;-80
2023/08/01 04:39:14;;;;;;;;;;;;;;;19.71;60.36;94312.50;5162469;22;20026;-83
2023/08/01 04:41:15;;;;;;;;;;;;;;;19.83;60.40;94316.00;5215150;22;19918;-80
2023/08/01 04:43:17;;;;;;;;;;;;;;;19.90;60.11;94306.13;5215482;22;19946;-81
2023/08/01 04:45:19;;;;;;;;;;;;;;;20.02;59.88;94314.13;5185365;22;19931;-80
2023/08/01 04:47:21;;;;;;;;;;;;;;;20.10;59.45;94307.66;5188813;22;19950;-81
2023/08/01 04:49:24;;;;;;;;;;;;;;;19.97;59.67;94306.00;5188938;22;19916;-80
2023/08/01 04:51:25;;;;;;;;;;;;;;;19.96;59.50;94299.91;5216042;22;19918;-81
2023/08/01 04:53:27;;;;;;;;;;;;;;;20.08;59.45;94315.06;5216490;22;19922;-82
2023/08/01 04:55:28;;;;;;;;;;;;;;;19.99;59.36;94312.72;5216758;22;20322;-81
2023/08/01 04:57:30;;;;;;;;;;;;;;;20.11;59.02;94301.31;5217259;22;20490;-82
2023/08/01 04:59:32;;;;;;;;;;;;;;;20.08;58.65;94307.09;5215915;22;19915;-83
2023/08/01 05:01:34;;;;;;;;;;;;;;;20.10;58.42;94307.66;5215075;22;19934;-80
2023/08/01 05:03:35;;;;;;;;;;;;;;;20.23;58.56;94304.81;5216801;22;19918;-82
2023/08/01 05:05:37;;;;;;;;;;;;;;;20.42;58.19;94301.00;5189703;22;19923;-81
2023/08/01 05:07:40;;;;;;;;;;;;;;;20.52;57.52;94305.78;5164701;22;19959;-81
2023/08/01 05:09:42;;;;;;;;;;;;;;;20.57;57.55;94305.91;5217565;22;19964;-80
2023/08/01 05:11:43;;;;;;;;;;;;;;;20.73;56.98;94306.28;5190925;22;19986;-82
2023/08/01 05:13:45;;;;;;;;;;;;;;;20.90;56.52;94309.03;5217502;22;19919;-81
2023/08/01 05:15:47;;;;;;;;;;;;;;;21.07;55.91;94307.28;5218307;22;19919;-80
2023/08/01 05:17:49;;;;;;;;;;;;;;;21.28;55.24;94305.88;5218595;22;19986;-79
2023/08/01 05:19:50;;;;;;;;;;;;;;;21.43;55.09;94313.41;5218269;22;19926;-83
2023/08/01 05:21:52;;;;;;;;;;;;;;;21.39;55.00;94310.34;5164304;23;19943;-81
2023/08/01 05:23:54;;;;;;;;;;;;;;;21.21;54.73;94319.31;5189359;22;19915;-84
2023/08/01 05:25:55;;;;;;;;;;;;;;;20.97;55.69;94313.22;5189550;22;20283;-81
2023/08/01 05:27:57;;;;;;;;;;;;;;;20.85;55.99;94318.53;5216907;22;19980;-82
2023/08/01 05:29:59;;;;;;;;;;;;;;;20.94;55.81;94312.88;5216537;22;20370;-82
2023/08/01 05:32:00;;;;;;;;;;;;;;;21.08;55.81;94319.56;5215167;22;20020;-84
2023/08/01 05:34:02;;;;;;;;;;;;;;;21.13;55.23;94317.00;5217762;22;20217;-81
2023/08/01 05:36:04;;;;;;;;;;;;;;;21.05;55.19;94320.84;5191913;22;19926;-82
2023/08/01 05:38:05;;;;;;;;;;;;;;;21.03;54.96;94324.78;5228382;22;19919;-81
2023/08/01 05:40:08;;;;;;;;;;;;;;;21.12;55.17;94315.38;5193952;22;19995;-81
2023/08/01 05:42:10;;;;;;;;;;;;;;;21.10;55.12;94320.16;5216162;22;19947;-81
2023/08/01 05:44:14;;;;;;;;;;;;;;;20.95;55.03;94315.31;5189712;22;20544;-79
2023/08/01 05:46:16;;;;;;;;;;;;;;;20.97;54.92;94315.88;5214775;22;19918;-81
2023/08/01 05:48:17;;;;;;;;;;;;;;;21.06;54.63;94313.69;5188136;22;20326;-81
2023/08/01 05:50:19;;;;;;;;;;;;;;;21.14;53.96;94315.16;5216660;22;19921;-81
2023/08/01 05:52:21;;;;;;;;;;;;;;;21.30;54.19;94309.13;5162901;22;19934;-82
2023/08/01 05:54:22;;;;;;;;;;;;;;;21.53;54.12;94302.94;5216147;22;19915;-81
2023/08/01 05:56:25;;;;;;;;;;;;;;;21.74;52.96;94303.31;5216289;22;19982;-82
2023/08/01 05:58:27;;;;;;;;;;;;;;;21.91;52.11;94303.38;5218181;22;19922;-79
2023/08/01 06:00:30;;;;;;;;;;;;;;;21.82;52.19;94305.63;5215575;22;19997;-84
2023/08/01 06:02:32;;;;;;;;;;;;;;;21.27;52.64;94306.91;5218415;22;19925;-81
2023/08/01 06:04:34;;;;;;;;;;;;;;;21.30;53.66;94300.31;5216429;22;19918;-81
2023/08/01 06:06:36;;;;;;;;;;;;;;;21.38;53.42;94292.78;5218478;22;19918;-82
2023/08/01 06:08:37;;;;;;;;;;;;;;;21.50;53.37;94308.75;5191388;22;19943;-80
2023/08/01 06:10:39;;;;;;;;;;;;;;;21.52;53.28;94297.84;5190025;22;19990;-82
2023/08/01 06:12:41;;;;;;;;;;;;;;;21.57;52.99;94298.75;5217831;22;20106;-84
2023/08/01 06:14:43;;;;;;;;;;;;;;;21.68;52.67;94297.06;5190027;22;20009;-82
2023/08/01 06:16:45;;;;;;;;;;;;;;;21.94;52.26;94303.72;5189578;22;20452;-82
2023/08/01 06:18:47;;;;;;;;;;;;;;;22.10;51.69;94296.78;5190441;22;19979;-81
2023/08/01 06:20:48;;;;;;;;;;;;;;;22.04;51.59;94293.22;5217010;22;19985;-82
2023/08/01 06:22:50;;;;;;;;;;;;;;;21.95;51.53;94292.00;5217295;22;19969;-80
2023/08/01 06:24:51;;;;;;;;;;;;;;;22.08;51.10;94289.00;5216963;22;19926;-85
2023/08/01 06:26:53;;;;;;;;;;;;;;;21.97;50.61;94289.91;5215094;22;20064;-82
2023/08/01 06:28:55;;;;;;;;;;;;;;;21.97;50.62;94292.56;5216687;22;19938;-84
2023/08/01 06:30:57;;;;;;;;;;;;;;;22.09;50.41;94293.31;5214744;22;20276;-81
2023/08/01 06:32:59;;;;;;;;;;;;;;;22.15;49.96;94299.53;5215554;22;19922;-81
2023/08/01 06:35:01;;;;;;;;;;;;;;;22.18;49.79;94291.06;5216166;22;19922;-80
2023/08/01 06:37:05;;;;;;;;;;;;;;;22.07;50.30;94287.41;5188083;22;20025;-81
2023/08/01 06:39:07;;;;;;;;;;;;;;;22.11;50.63;94284.25;5216119;22;19965;-83
2023/08/01 06:41:09;;;;;;;;;;;;;;;22.06;49.98;94284.97;5187953;22;19973;-81
2023/08/01 06:43:11;;;;;;;;;;;;;;;22.09;49.69;94279.97;5187994;22;19946;-79
2023/08/01 06:45:13;;;;;;;;;;;;;;;22.30;49.85;94280.34;5214825;22;19915;-79
2023/08/01 06:47:14;;;;;;;;;;;;;;;22.24;49.70;94283.97;5214971;22;19918;-82
2023/08/01 06:49:16;;;;;;;;;;;;;;;22.28;49.41;94285.94;5188545;22;19926;-83
2023/08/01 06:51:17;;;;;;;;;;;;;;;22.15;49.85;94280.06;5214846;22;19919;-83
2023/08/01 06:53:19;;;;;;;;;;;;;;;22.33;49.83;94279.03;5189272;22;19919;-83
2023/08/01 06:55:21;;;;;;;;;;;;;;;22.51;48.83;94283.34;5188543;22;19915;-82
2023/08/01 06:57:22;;;;;;;;;;;;;;;22.70;48.18;94282.84;5188474;22;19919;-82
2023/08/01 06:59:24;;;;;;;;;;;;;;;22.49;48.73;94292.38;5216647;22;19982;-83
2023/08/01 07:01:32;;;;;;;;;;;;;;;22.65;48.25;94284.59;5188282;22;19939;-81
2023/08/01 07:03:34;;;;;;;;;;;;;;;22.81;47.94;94288.31;5190698;22;20009;-85
2023/08/01 07:05:36;;;;;;;;;;;;;;;22.84;48.18;94288.66;5191835;22;19923;-81
2023/08/01 07:07:39;;;;;;;;;;;;;;;22.84;48.08;94283.31;5191998;22;19919;-81
2023/08/01 07:09:41;;;;;;;;;;;;;;;22.84;48.25;94290.50;5219175;22;19965;-83
2023/08/01 07:11:42;;;;;;;;;;;;;;;22.99;47.86;94280.03;5219807;22;19915;-83
2023/08/01 07:13:47;;;;;;;;;;;;;;;23.14;47.92;94282.13;5193300;22;19915;-79
2023/08/01 07:15:48;;;;;;;;;;;;;;;23.18;47.94;94272.56;5190047;22;20242;-84
2023/08/01 07:17:50;;;;;;;;;;;;;;;23.23;47.81;94266.47;5217151;22;19918;-82
2023/08/01 07:19:53;;;;;;;;;;;;;;;23.14;48.10;94270.63;5217148;22;19968;-81
2023/08/01 07:21:55;;;;;;;;;;;;;;;23.12;47.96;94268.19;5218361;22;19925;-82
2023/08/01 07:23:59;;;;;;;;;;;;;;;23.20;48.27;94267.78;5193187;22;19950;-83
2023/08/01 07:26:01;;;;;;;;;;;;;;;23.33;48.18;94271.16;5218754;22;19968;-82
2023/08/01 07:28:03;;;;;;;;;;;;;;;23.50;47.59;94263.84;5165844;22;19981;-83
2023/08/01 07:30:05;;;;;;;;;;;;;;;23.63;47.38;94268.00;5188752;22;19919;-82
2023/08/01 07:32:07;;;;;;;;;;;;;;;23.62;46.94;94264.53;5214595;22;20228;-83
2023/08/01 07:34:08;;;;;;;;;;;;;;;23.24;47.81;94268.09;5215401;22;19918;-83
2023/08/01 07:36:10;;;;;;;;;;;;;;;23.14;48.10;94258.06;5187974;22;19950;-86
2023/08/01 07:38:12;;;;;;;;;;;;;;;23.04;48.61;94272.13;5216842;22;19918;-82
2023/08/01 07:40:13;;;;;;;;;;;;;;;23.10;48.50;94256.94;5216006;22;20307;-82
2023/08/01 07:42:15;;;;;;;;;;;;;;;23.17;48.87;94260.28;5189839;22;20010;-83
2023/08/01 07:44:18;;;;;;;;;;;;;;;23.44;48.26;94259.50;5216403;22;19918;-83
2023/08/01 07:46:20;;;;;;;;;;;;;;;23.72;48.07;94261.16;5216761;22;20250;-80
2023/08/01 07:48:22;;;;;;;;;;;;;;;24.00;47.51;94262.78;5217188;22;19930;-81
2023/08/01 07:50:23;;;;;;;;;;;;;;;24.26;47.04;94258.50;5218411;22;19968;-83
2023/08/01 07:52:25;;;;;;;;;;;;;;;24.46;46.26;94262.41;5226675;22;20405;-80
2023/08/01 07:54:27;;;;;;;;;;;;;;;24.60;46.17;94263.59;5190133;22;19923;-82
2023/08/01 07:56:28;;;;;;;;;;;;;;;24.72;45.77;94258.84;5188171;22;20088;-81
2023/08/01 07:58:30;;;;;;;;;;;;;;;24.58;46.03;94257.69;5189574;22;19919;-81
2023/08/01 08:00:36;;;;;;;;;;;;;;;24.63;45.92;94256.91;5188614;22;19919;-83
2023/08/01 08:02:38;;;;;;;;;;;;;;;24.75;45.96;94254.06;5164275;22;19920;-85
2023/08/01 08:04:40;;;;;;;;;;;;;;;24.88;45.69;94251.72;5216211;22;20400;-80
2023/08/01 08:06:45;;;;;;;;;;;;;;;24.99;45.62;94260.63;5216560;22;20316;-79
2023/08/01 08:08:48;;;;;;;;;;;;;;;25.21;45.13;94252.47;5189615;22;20150;-84
2023/08/01 08:10:49;;;;;;;;;;;;;;;25.42;44.51;94247.19;5188836;22;19918;-80
2023/08/01 08:12:51;;;;;;;;;;;;;;;25.55;44.12;94241.31;5216832;22;19986;-82
2023/08/01 08:14:53;;;;;;;;;;;;;;;25.08;44.64;94245.69;5215721;22;19922;-81
2023/08/01 08:16:54;;;;;;;;;;;;;;;24.64;45.77;94248.63;5215187;22;19983;-82
2023/08/01 08:18:56;;;;;;;;;;;;;;;24.58;46.26;94238.94;5216475;22;19914;-82
2023/08/01 08:20:58;;;;;;;;;;;;;;;24.77;45.74;94233.97;5218965;22;19918;-82
2023/08/01 08:22:59;;;;;;;;;;;;;;;24.64;46.05;94234.44;5219106;22;19919;-86
2023/08/01 08:25:01;;;;;;;;;;;;;;;24.33;46.47;94237.66;5217278;22;19997;-82
2023/08/01 08:27:03;;;;;;;;;;;;;;;24.35;46.73;94233.91;5216902;22;19921;-81
2023/08/01 08:29:04;;;;;;;;;;;;;;;24.37;46.56;94237.97;5218484;22;19914;-78
2023/08/01 08:31:06;;;;;;;;;;;;;;;24.33;46.95;94231.53;5190720;22;19935;-82
2023/08/01 08:33:10;;;;;;;;;;;;;;;24.46;46.55;94224.91;5216548;22;19915;-82
2023/08/01 08:35:13;;;;;;;;;;;;;;;24.58;46.57;94230.09;5191318;22;20021;-84
2023/08/01 08:37:15;;;;;;;;;;;;;;;24.87;45.85;94227.88;5218319;22;20216;-81
2023/08/01 08:39:17;;;;;;;;;;;;;;;24.96;45.53;94217.47;5191561;22;19935;-81
2023/08/01 08:41:22;;;;;;;;;;;;;;;25.06;45.54;94222.88;5218110;22;20029;-82
2023/08/01 08:43:25;;;;;;;;;;;;;;;24.87;45.03;94212.59;5218564;22;19914;-81
2023/08/01 08:45:27;;;;;;;;;;;;;;;25.13;44.75;94218.88;5189926;22;19985;-80
2023/08/01 08:47:28;;;;;;;;;;;;;;;25.43;44.63;94214.75;5216513;22;19964;-84
2023/08/01 08:49:30;;;;;;;;;;;;;;;25.40;44.57;94207.22;5216623;22;19919;-81
2023/08/01 08:51:32;;;;;;;;;;;;;;;25.40;44.45;94211.78;5165199;22;19926;-82
2023/08/01 08:53:33;;;;;;;;;;;;;;;25.48;44.21;94204.03;5189491;22;19926;-82
2023/08/01 08:55:35;;;;;;;;;;;;;;;25.65;44.34;94206.47;5218076;22;19919;-80
2023/08/01 08:57:37;;;;;;;;;;;;;;;25.74;43.61;94194.16;5190406;22;20338;-82
2023/08/01 08:59:38;;;;;;;;;;;;;;;25.78;43.61;94196.31;5164615;23;20287;-84
2023/08/01 09:01:40;;;;;;;;;;;;;;;25.84;43.76;94196.06;5188553;22;20349;-84
2023/08/01 09:03:43;;;;;;;;;;;;;;;26.05;43.44;94188.88;5216249;22;19923;-82
2023/08/01 09:05:50;;;;;;;;;;;;;;;26.31;43.03;94197.72;5216355;22;19950;-82
2023/08/01 09:07:52;;;;;;;;;;;;;;;26.40;42.56;94191.81;5190728;22;19961;-82
2023/08/01 09:09:54;;;;;;;;;;;;;;;26.65;42.08;94190.97;5191089;22;20332;-83
2023/08/01 09:11:56;;;;;;;;;;;;;;;26.84;41.53;94186.63;5216857;22;20240;-82
2023/08/01 09:13:58;;;;;;;;;;;;;;;26.97;41.75;94185.25;5218634;22;19958;-83
2023/08/01 09:15:59;;;;;;;;;;;;;;;27.13;41.10;94184.13;5217986;22;19915;-83
2023/08/01 09:18:05;;;;;;;;;;;;;;;27.02;41.21;94176.34;5190681;22;19915;-84
2023/08/01 09:20:07;;;;;;;;;;;;;;;27.01;40.95;94174.75;5218076;22;20303;-81
2023/08/01 09:22:10;;;;;;;;;;;;;;;26.98;41.28;94172.63;5216675;22;20367;-81
2023/08/01 09:24:15;;;;;;;;;;;;;;;26.73;41.77;94177.78;5217841;22;19998;-84
2023/08/01 09:26:19;;;;;;;;;;;;;;;26.34;42.16;94180.25;5191307;22;19915;-84
2023/08/01 09:28:22;;;;;;;;;;;;;;;26.30;42.35;94179.19;5218883;22;19918;-82
2023/08/01 09:30:24;;;;;;;;;;;;;;;26.40;42.03;94181.06;5216119;22;19918;-83
2023/08/01 09:32:25;;;;;;;;;;;;;;;26.42;41.67;94174.34;5190802;22;19919;-81
2023/08/01 09:34:28;;;;;;;;;;;;;;;26.38;41.81;94172.47;5218427;22;20280;-83
2023/08/01 09:36:31;;;;;;;;;;;;;;;26.51;41.83;94178.09;5217394;22;19946;-83
2023/08/01 09:38:35;;;;;;;;;;;;;;;26.81;41.54;94164.88;5218893;22;20018;-84
2023/08/01 09:40:38;;;;;;;;;;;;;;;27.13;41.09;94168.00;5219281;22;19984;-80
2023/08/01 09:42:42;;;;;;;;;;;;;;;27.32;40.63;94165.50;5220722;22;19969;-83
2023/08/01 09:44:46;;;;;;;;;;;;;;;27.47;40.34;94166.50;5224860;22;19915;-82
2023/08/01 09:46:58;;;;;;;;;;;;;;;27.19;40.79;94163.41;5233720;22;19914;-83
2023/08/01 09:49:09;;;;;;;;;;;;;;;27.16;40.87;94156.66;5233836;22;19926;-80
2023/08/01 09:51:12;;;;;;;;;;;;;;;27.03;41.26;94159.97;5201491;22;19921;-80
2023/08/01 09:53:14;;;;;;;;;;;;;;;27.20;41.04;94151.56;5204282;22;19919;-82
2023/08/01 09:55:24;;;;;;;;;;;;;;;27.04;41.09;94148.13;5204792;22;19945;-80
2023/08/01 09:57:27;;;;;;;;;;;;;;;26.67;41.55;94149.34;5233193;22;19919;-82
2023/08/01 09:59:29;;;;;;;;;;;;;;;26.40;41.93;94144.25;5204953;22;19919;-81
2023/08/01 10:01:32;;;;;;;;;;;;;;;26.45;42.04;94146.13;5206951;22;20293;-83
2023/08/01 10:03:33;;;;;;;;;;;;;;;26.68;41.68;94134.03;5209008;22;19903;-84
2023/08/01 10:05:35;;;;;;;;;;;;;;;26.78;41.60;94136.69;5235245;22;19983;-81
2023/08/01 10:07:37;;;;;;;;;;;;;;;26.80;41.68;94137.19;5205314;22;19996;-81
2023/08/01 10:09:39;;;;;;;;;;;;;;;26.91;41.31;94121.84;5231420;22;19915;-81
2023/08/01 10:11:42;;;;;;;;;;;;;;;27.19;41.20;94117.69;5234197;22;19925;-81
2023/08/01 10:13:44;;;;;;;;;;;;;;;27.15;40.71;94117.44;5231943;22;20005;-79
2023/08/01 10:15:46;;;;;;;;;;;;;;;27.18;40.49;94116.88;5229114;22;19945;-82
2023/08/01 10:17:48;;;;;;;;;;;;;;;27.40;40.43;94121.09;5200551;22;19942;-82
2023/08/01 10:19:51;;;;;;;;;;;;;;;27.47;40.25;94115.38;5188393;22;19994;-82
2023/08/01 10:21:52;;;;;;;;;;;;;;;27.20;40.53;94119.28;5192358;22;19938;-81
2023/08/01 10:23:56;;;;;;;;;;;;;;;27.14;40.65;94120.38;5229165;22;19915;-81
2023/08/01 10:25:58;;;;;;;;;;;;;;;27.11;40.89;94105.63;5202570;22;19915;-83
2023/08/01 10:28:03;;;;;;;;;;;;;;;27.33;40.71;94107.94;5190134;22;19923;-81
2023/08/01 10:30:06;;;;;;;;;;;;;;;27.05;40.85;94103.25;5214472;22;19957;-82
2023/08/01 10:32:08;;;;;;;;;;;;;;;26.99;40.85;94107.03;5217205;22;19921;-80
2023/08/01 10:34:13;;;;;;;;;;;;;;;27.17;40.83;94098.34;5216764;22;20329;-82
2023/08/01 10:36:19;;;;;;;;;;;;;;;27.26;40.68;94095.91;5190972;22;19965;-82